Time,TemperatureF,DewpointF,PressureIn,WindDirection,WindDirectionDegrees,WindSpeedMPH,WindSpeedGustMPH,Humidity,HourlyPrecipIn,Conditions,Clouds,dailyrainin,SoftwareType,DateUTC
2013-09-21 00:00:00,53.1,48.1,29.59,North,5,3.0,7.0,83,0.00,,---,0.00,VWS V14.01,2013-09-21 07:00:00,
2013-09-21 00:05:00,53.4,48.0,29.60,NNE,24,0.0,8.0,82,0.00,,---,0.00,VWS V14.01,2013-09-21 07:05:00,
2013-09-21 00:10:00,53.4,48.4,29.59,NNE,29,6.0,8.0,83,0.00,,---,0.00,VWS V14.01,2013-09-21 07:10:00,
2013-09-21 00:15:00,53.2,48.5,29.59,NNE,33,7.0,8.0,84,0.00,,---,0.00,VWS V14.01,2013-09-21 07:15:00,
2013-09-21 00:20:00,53.2,48.5,29.60,NNE,32,4.0,9.0,84,0.00,,---,0.00,VWS V14.01,2013-09-21 07:20:00,
2013-09-21 00:25:00,53.1,48.4,29.59,NNE,32,4.0,9.0,84,0.00,,---,0.00,VWS V14.01,2013-09-21 07:25:00,
2013-09-21 00:30:00,53.1,48.4,29.60,NE,36,0.0,0.0,84,0.00,,---,0.00,VWS V14.01,2013-09-21 07:30:00,
2013-09-21 00:35:00,53.0,48.0,29.59,NNE,14,0.0,6.0,83,0.00,,---,0.00,VWS V14.01,2013-09-21 07:35:00,
2013-09-21 00:40:00,52.9,48.2,29.59,NNE,14,0.0,6.0,84,0.00,,---,0.00,VWS V14.01,2013-09-21 07:40:00,
2013-09-21 00:45:00,52.9,47.9,29.58,NNE,13,6.0,7.0,83,0.00,,---,0.00,VWS V14.01,2013-09-21 07:45:00,
2013-09-21 00:50:00,53.3,47.6,29.59,NNE,13,0.0,7.0,81,0.00,,---,0.00,VWS V14.01,2013-09-21 07:50:00,
2013-09-21 00:55:00,53.4,47.4,29.59,NNE,14,0.0,7.0,80,0.00,,---,0.00,VWS V14.01,2013-09-21 07:55:00,
2013-09-21 01:00:00,53.5,46.8,29.59,NNE,14,0.0,0.0,78,0.00,,---,0.00,VWS V14.01,2013-09-21 08:00:00,
2013-09-21 01:05:00,53.8,46.4,29.59,NNE,14,0.0,0.0,76,0.00,,---,0.00,VWS V14.01,2013-09-21 08:05:00,
2013-09-21 01:10:00,54.1,46.0,29.59,NNE,14,0.0,0.0,74,0.00,,---,0.00,VWS V14.01,2013-09-21 08:10:00,
2013-09-21 01:15:00,54.2,46.5,29.59,NNE,14,0.0,0.0,75,0.00,,---,0.00,VWS V14.01,2013-09-21 08:15:00,
2013-09-21 01:20:00,53.7,47.0,29.59,NNE,14,0.0,0.0,78,0.00,,---,0.00,VWS V14.01,2013-09-21 08:20:00,
2013-09-21 01:25:00,53.1,47.1,29.60,NNE,14,0.0,0.0,80,0.00,,---,0.00,VWS V14.01,2013-09-21 08:25:00,
2013-09-21 01:30:00,52.7,47.4,29.61,WSW,238,0.0,0.0,82,0.00,,---,0.00,VWS V14.01,2013-09-21 08:30:00,
2013-09-21 01:35:00,52.4,47.1,29.61,SW,234,0.0,2.0,82,0.00,,---,0.00,VWS V14.01,2013-09-21 08:35:00,
2013-09-21 01:40:00,52.2,47.2,29.61,SW,234,0.0,2.0,83,0.00,,---,0.00,VWS V14.01,2013-09-21 08:40:00,
2013-09-21 01:45:00,52.2,46.5,29.61,SW,234,0.0,0.0,81,0.00,,---,0.00,VWS V14.01,2013-09-21 08:45:00,
2013-09-21 01:50:00,52.3,47.0,29.61,SW,234,0.0,0.0,82,0.00,,---,0.00,VWS V14.01,2013-09-21 08:50:00,
2013-09-21 01:55:00,52.6,47.3,29.62,SW,234,0.0,0.0,82,0.00,,---,0.00,VWS V14.01,2013-09-21 08:55:00,
2013-09-21 02:00:00,52.4,47.4,29.62,SW,234,0.0,0.0,83,0.00,,---,0.00,VWS V14.01,2013-09-21 09:00:00,
2013-09-21 02:05:00,52.2,47.5,29.62,SW,234,0.0,0.0,84,0.00,,---,0.00,VWS V14.01,2013-09-21 09:05:00,
2013-09-21 02:10:00,52.0,46.7,29.62,SW,234,0.0,0.0,82,0.00,,---,0.00,VWS V14.01,2013-09-21 09:10:00,
2013-09-21 02:15:00,52.4,45.1,29.62,SW,234,0.0,0.0,76,0.00,,---,0.00,VWS V14.01,2013-09-21 09:15:00,
2013-09-21 02:20:00,53.1,46.8,29.61,SW,234,0.0,0.0,79,0.00,,---,0.00,VWS V14.01,2013-09-21 09:20:00,
2013-09-21 02:25:00,52.8,46.1,29.61,SW,234,0.0,0.0,78,0.00,,---,0.00,VWS V14.01,2013-09-21 09:25:00,
2013-09-21 02:30:00,52.0,45.7,29.61,SW,234,0.0,0.0,79,0.00,,---,0.00,VWS V14.01,2013-09-21 09:30:00,
2013-09-21 02:35:00,51.3,46.0,29.61,SW,234,0.0,0.0,82,0.00,,---,0.00,VWS V14.01,2013-09-21 09:35:00,
2013-09-21 02:40:00,50.5,45.5,29.61,SW,234,0.0,0.0,83,0.00,,---,0.00,VWS V14.01,2013-09-21 09:40:00,
2013-09-21 02:45:00,50.1,45.5,29.61,SW,234,0.0,0.0,84,0.00,,---,0.00,VWS V14.01,2013-09-21 09:45:00,
2013-09-21 02:50:00,50.8,45.8,29.61,NNE,24,4.0,4.0,83,0.00,,---,0.00,VWS V14.01,2013-09-21 09:50:00,
2013-09-21 02:55:00,50.7,45.7,29.61,NNE,26,3.0,5.0,83,0.00,,---,0.00,VWS V14.01,2013-09-21 09:55:00,
2013-09-21 03:00:00,51.4,45.5,29.61,NNE,32,0.0,3.0,80,0.00,,---,0.00,VWS V14.01,2013-09-21 10:00:00,
2013-09-21 03:05:00,51.0,44.7,29.61,NNE,32,0.0,3.0,79,0.00,,---,0.00,VWS V14.01,2013-09-21 10:05:00,
2013-09-21 03:10:00,50.8,44.5,29.61,SSW,194,0.0,3.0,79,0.00,,---,0.00,VWS V14.01,2013-09-21 10:10:00,
2013-09-21 03:15:00,50.4,44.1,29.61,SSW,194,0.0,0.0,79,0.00,,---,0.00,VWS V14.01,2013-09-21 10:15:00,
2013-09-21 03:20:00,50.2,43.6,29.60,SSW,194,0.0,0.0,78,0.00,,---,0.00,VWS V14.01,2013-09-21 10:20:00,
2013-09-21 03:25:00,50.5,42.9,29.61,SSW,192,0.0,0.0,75,0.00,,---,0.00,VWS V14.01,2013-09-21 10:25:00,
2013-09-21 03:30:00,51.0,43.0,29.61,South,188,0.0,0.0,74,0.00,,---,0.00,VWS V14.01,2013-09-21 10:30:00,
2013-09-21 03:35:00,51.4,43.0,29.61,South,188,0.0,0.0,73,0.00,,---,0.00,VWS V14.01,2013-09-21 10:35:00,
2013-09-21 03:40:00,51.7,43.0,29.61,ENE,58,0.0,0.0,72,0.00,,---,0.00,VWS V14.01,2013-09-21 10:40:00,
2013-09-21 03:45:00,52.0,43.3,29.61,ENE,60,5.0,6.0,72,0.00,,---,0.00,VWS V14.01,2013-09-21 10:45:00,
2013-09-21 03:50:00,51.8,41.6,29.61,ENE,57,4.0,7.0,68,0.00,,---,0.00,VWS V14.01,2013-09-21 10:50:00,
2013-09-21 03:55:00,52.9,42.6,29.61,ENE,57,1.0,7.0,68,0.00,,---,0.00,VWS V14.01,2013-09-21 10:55:00,
2013-09-21 04:00:00,52.1,43.0,29.60,ENE,57,0.0,0.0,71,0.00,,---,0.00,VWS V14.01,2013-09-21 11:00:00,
2013-09-21 04:05:00,51.9,42.1,29.61,East,96,5.0,12.0,69,0.00,,---,0.00,VWS V14.01,2013-09-21 11:05:00,
2013-09-21 04:10:00,51.8,42.7,29.61,East,96,0.0,12.0,71,0.00,,---,0.00,VWS V14.01,2013-09-21 11:10:00,
2013-09-21 04:15:00,51.2,41.8,29.61,ENE,72,0.0,0.0,70,0.00,,---,0.00,VWS V14.01,2013-09-21 11:15:00,
2013-09-21 04:20:00,52.0,41.0,29.61,ENE,72,0.0,0.0,66,0.00,,---,0.00,VWS V14.01,2013-09-21 11:20:00,
2013-09-21 04:25:00,52.9,41.1,29.61,ENE,72,0.0,0.0,64,0.00,,---,0.00,VWS V14.01,2013-09-21 11:25:00,
2013-09-21 04:30:00,51.8,42.0,29.61,ENE,72,0.0,0.0,69,0.00,,---,0.00,VWS V14.01,2013-09-21 11:30:00,
2013-09-21 04:35:00,50.3,42.3,29.61,ENE,72,0.0,0.0,74,0.00,,---,0.00,VWS V14.01,2013-09-21 11:35:00,
2013-09-21 04:40:00,49.3,42.1,29.61,ENE,72,0.0,0.0,76,0.00,,---,0.00,VWS V14.01,2013-09-21 11:40:00,
2013-09-21 04:44:00,48.5,41.3,29.61,ENE,72,0.0,0.0,76,0.00,,---,0.00,VWS V14.01,2013-09-21 11:44:00,
2013-09-21 04:45:00,48.6,41.4,29.61,ENE,72,0.0,0.0,76,0.00,,---,0.00,VWS V14.01,2013-09-21 11:45:00,
2013-09-21 04:49:00,48.2,42.3,29.61,ENE,72,0.0,0.0,80,0.00,,---,0.00,VWS V14.01,2013-09-21 11:49:00,
2013-09-21 04:54:00,48.7,41.5,29.61,ENE,72,0.0,0.0,76,0.00,,---,0.00,VWS V14.01,2013-09-21 11:54:00,
2013-09-21 04:59:00,48.3,41.1,29.61,ENE,72,0.0,0.0,76,0.00,,---,0.00,VWS V14.01,2013-09-21 11:59:00,
2013-09-21 05:00:00,48.4,41.2,29.61,ENE,72,0.0,0.0,76,0.00,,---,0.00,VWS V14.01,2013-09-21 12:00:00,
2013-09-21 05:04:00,47.8,41.3,29.61,ENE,72,0.0,0.0,78,0.00,,---,0.00,VWS V14.01,2013-09-21 12:04:00,
2013-09-21 05:09:00,48.7,41.8,29.61,ENE,72,0.0,0.0,77,0.00,,---,0.00,VWS V14.01,2013-09-21 12:09:00,
2013-09-21 05:14:00,48.8,42.3,29.61,ENE,65,5.0,5.0,78,0.00,,---,0.00,VWS V14.01,2013-09-21 12:14:00,
2013-09-21 05:15:00,51.2,41.8,29.61,ENE,72,0.0,12.0,70,0.00,,---,0.00,VWS V14.01,2013-09-21 12:15:00,
2013-09-21 05:19:00,48.4,42.5,29.61,NE,49,3.0,6.0,80,0.00,,---,0.00,VWS V14.01,2013-09-21 12:19:00,
2013-09-21 05:24:00,47.8,42.6,29.61,NE,42,0.0,6.0,82,0.00,,---,0.00,VWS V14.01,2013-09-21 12:24:00,
2013-09-21 05:29:00,47.7,42.5,29.61,NE,42,0.0,0.0,82,0.00,,---,0.00,VWS V14.01,2013-09-21 12:29:00,
2013-09-21 05:30:00,47.7,42.5,29.61,NE,43,0.0,6.0,82,0.00,,---,0.00,VWS V14.01,2013-09-21 12:30:00,
2013-09-21 05:34:00,47.4,42.5,29.61,NE,42,0.0,0.0,83,0.00,,---,0.00,VWS V14.01,2013-09-21 12:34:00,
2013-09-21 05:39:00,47.0,41.8,29.61,NE,42,0.0,0.0,82,0.00,,---,0.00,VWS V14.01,2013-09-21 12:39:00,
2013-09-21 05:44:00,46.5,42.2,29.61,NE,42,0.0,0.0,85,0.00,,---,0.00,VWS V14.01,2013-09-21 12:44:00,
2013-09-21 05:45:00,46.5,42.2,29.61,NE,42,0.0,0.0,85,0.00,,---,0.00,VWS V14.01,2013-09-21 12:45:00,
2013-09-21 05:49:00,46.7,42.4,29.61,NE,42,0.0,3.0,85,0.00,,---,0.00,VWS V14.01,2013-09-21 12:49:00,
2013-09-21 05:54:00,46.4,42.1,29.61,NE,42,0.0,3.0,85,0.00,,---,0.00,VWS V14.01,2013-09-21 12:54:00,
2013-09-21 05:59:00,46.6,42.0,29.61,NE,42,0.0,0.0,84,0.00,,---,0.00,VWS V14.01,2013-09-21 12:59:00,
2013-09-21 06:00:00,46.6,42.0,29.61,NE,42,0.0,3.0,84,0.00,,---,0.00,VWS V14.01,2013-09-21 13:00:00,
2013-09-21 06:04:00,46.9,42.0,29.61,NE,42,0.0,0.0,83,0.00,,---,0.00,VWS V14.01,2013-09-21 13:04:00,
2013-09-21 06:09:00,46.6,41.7,29.61,NE,42,0.0,0.0,83,0.00,,---,0.00,VWS V14.01,2013-09-21 13:09:00,
2013-09-21 06:14:00,46.8,41.6,29.61,NE,41,0.0,0.0,82,0.00,,---,0.00,VWS V14.01,2013-09-21 13:14:00,
2013-09-21 06:15:00,46.8,41.6,29.61,NE,41,0.0,4.0,82,0.00,,---,0.00,VWS V14.01,2013-09-21 13:15:00,
2013-09-21 06:19:00,46.7,41.5,29.61,NE,42,0.0,0.0,82,0.00,,---,0.00,VWS V14.01,2013-09-21 13:19:00,
2013-09-21 06:24:00,46.6,41.4,29.61,NE,42,0.0,0.0,82,0.00,,---,0.00,VWS V14.01,2013-09-21 13:24:00,
2013-09-21 06:29:00,46.7,41.8,29.61,NE,42,0.0,0.0,83,0.00,,---,0.00,VWS V14.01,2013-09-21 13:29:00,
2013-09-21 06:30:00,46.7,41.8,29.61,NE,42,0.0,0.0,83,0.00,,---,0.00,VWS V14.01,2013-09-21 13:30:00,
2013-09-21 06:34:00,46.3,41.7,29.61,NE,42,0.0,0.0,84,0.00,,---,0.00,VWS V14.01,2013-09-21 13:34:00,
2013-09-21 06:39:00,46.0,41.8,29.61,NE,42,0.0,0.0,85,0.00,,---,0.00,VWS V14.01,2013-09-21 13:39:00,
2013-09-21 06:44:00,45.7,41.5,29.62,NE,42,0.0,0.0,85,0.00,,---,0.00,VWS V14.01,2013-09-21 13:44:00,
2013-09-21 06:45:00,45.7,41.5,29.62,NE,42,0.0,0.0,85,0.00,,---,0.00,VWS V14.01,2013-09-21 13:45:00,
2013-09-21 06:49:00,45.4,41.2,29.62,NE,41,0.0,0.0,85,0.00,,---,0.00,VWS V14.01,2013-09-21 13:49:00,
2013-09-21 06:54:00,45.0,40.8,29.61,NE,42,0.0,0.0,85,0.00,,---,0.00,VWS V14.01,2013-09-21 13:54:00,
2013-09-21 06:59:00,44.9,40.7,29.62,NE,42,0.0,0.0,85,0.00,,---,0.00,VWS V14.01,2013-09-21 13:59:00,
2013-09-21 07:00:00,44.9,40.7,29.62,NE,42,0.0,0.0,85,0.00,,---,0.00,VWS V14.01,2013-09-21 14:00:00,
2013-09-21 07:04:00,44.7,40.5,29.62,NE,42,0.0,0.0,85,0.00,,---,0.00,VWS V14.01,2013-09-21 14:04:00,
2013-09-21 07:09:00,44.7,40.5,29.62,NE,42,0.0,0.0,85,0.00,,---,0.00,VWS V14.01,2013-09-21 14:09:00,
2013-09-21 07:14:00,44.9,40.7,29.62,NE,42,0.0,0.0,85,0.00,,---,0.00,VWS V14.01,2013-09-21 14:14:00,
2013-09-21 07:15:00,44.9,40.7,29.62,NE,42,0.0,0.0,85,0.00,,---,0.00,VWS V14.01,2013-09-21 14:15:00,
2013-09-21 07:19:00,45.4,40.5,29.62,NE,42,0.0,0.0,83,0.00,,---,0.00,VWS V14.01,2013-09-21 14:19:00,
2013-09-21 07:24:00,45.5,41.0,29.63,ESE,102,0.0,4.0,84,0.00,,---,0.00,VWS V14.01,2013-09-21 14:24:00,
2013-09-21 07:29:00,45.0,40.5,29.62,ESE,102,0.0,4.0,84,0.00,,---,0.00,VWS V14.01,2013-09-21 14:29:00,
2013-09-21 07:30:00,45.0,40.5,29.62,ESE,102,0.0,4.0,84,0.00,,---,0.00,VWS V14.01,2013-09-21 14:30:00,
2013-09-21 07:34:00,45.0,40.5,29.63,ESE,102,0.0,0.0,84,0.00,,---,0.00,VWS V14.01,2013-09-21 14:34:00,
2013-09-21 07:39:00,44.9,41.0,29.63,ESE,102,0.0,0.0,86,0.00,,---,0.00,VWS V14.01,2013-09-21 14:39:00,
2013-09-21 07:44:00,44.7,40.5,29.62,ESE,102,0.0,0.0,85,0.00,,---,0.00,VWS V14.01,2013-09-21 14:44:00,
2013-09-21 07:45:00,44.7,40.5,29.62,ESE,102,0.0,0.0,85,0.00,,---,0.00,VWS V14.01,2013-09-21 14:45:00,
2013-09-21 07:49:00,45.0,41.1,29.63,ESE,102,0.0,0.0,86,0.00,,---,0.00,VWS V14.01,2013-09-21 14:49:00,
2013-09-21 07:54:00,45.1,41.2,29.63,ESE,102,0.0,0.0,86,0.00,,---,0.00,VWS V14.01,2013-09-21 14:54:00,
2013-09-21 07:59:00,45.7,41.2,29.63,ESE,102,4.0,4.0,84,0.00,,---,0.00,VWS V14.01,2013-09-21 14:59:00,
2013-09-21 08:00:00,45.7,41.2,29.63,ESE,102,4.0,4.0,84,0.00,,---,0.00,VWS V14.01,2013-09-21 15:00:00,
2013-09-21 08:04:00,46.0,42.0,29.63,East,101,1.0,4.0,86,0.00,,---,0.00,VWS V14.01,2013-09-21 15:04:00,
2013-09-21 08:09:00,46.2,42.5,29.63,East,101,0.0,4.0,87,0.00,,---,0.00,VWS V14.01,2013-09-21 15:09:00,
2013-09-21 08:14:00,46.6,42.9,29.63,East,101,0.0,4.0,87,0.00,,---,0.00,VWS V14.01,2013-09-21 15:14:00,
2013-09-21 08:15:00,46.6,42.9,29.63,East,101,0.0,4.0,87,0.00,,---,0.00,VWS V14.01,2013-09-21 15:15:00,
2013-09-21 08:19:00,47.0,43.0,29.63,East,101,0.0,0.0,86,0.00,,---,0.00,VWS V14.01,2013-09-21 15:19:00,
2013-09-21 08:24:00,47.5,42.6,29.63,East,101,0.0,0.0,83,0.00,,---,0.00,VWS V14.01,2013-09-21 15:24:00,
2013-09-21 08:29:00,47.9,43.0,29.63,East,101,0.0,0.0,83,0.00,,---,0.00,VWS V14.01,2013-09-21 15:29:00,
2013-09-21 08:30:00,48.0,43.1,29.63,East,101,0.0,0.0,83,0.00,,---,0.00,VWS V14.01,2013-09-21 15:30:00,
2013-09-21 08:34:00,48.3,43.1,29.63,ESE,102,0.0,0.0,82,0.00,,---,0.00,VWS V14.01,2013-09-21 15:34:00,
2013-09-21 08:39:00,48.6,43.4,29.63,ESE,102,0.0,0.0,82,0.00,,---,0.00,VWS V14.01,2013-09-21 15:39:00,
2013-09-21 08:44:00,48.9,44.3,29.62,ESE,102,0.0,0.0,84,0.00,,---,0.00,VWS V14.01,2013-09-21 15:44:00,
2013-09-21 08:45:00,48.9,44.3,29.62,ESE,102,0.0,0.0,84,0.00,,---,0.00,VWS V14.01,2013-09-21 15:45:00,
2013-09-21 08:49:00,49.1,44.8,29.63,ESE,102,0.0,0.0,85,0.00,,---,0.00,VWS V14.01,2013-09-21 15:49:00,
2013-09-21 08:54:00,49.2,44.9,29.63,ESE,102,0.0,0.0,85,0.00,,---,0.00,VWS V14.01,2013-09-21 15:54:00,
2013-09-21 08:59:00,49.5,45.2,29.63,ESE,102,0.0,0.0,85,0.00,,---,0.00,VWS V14.01,2013-09-21 15:59:00,
2013-09-21 09:00:00,49.5,45.2,29.63,ESE,102,0.0,0.0,85,0.00,,---,0.00,VWS V14.01,2013-09-21 16:00:00,
2013-09-21 09:04:00,49.9,45.9,29.62,ESE,102,0.0,0.0,86,0.00,,---,0.00,VWS V14.01,2013-09-21 16:04:00,
2013-09-21 09:09:00,50.3,46.0,29.62,ESE,102,0.0,0.0,85,0.00,,---,0.00,VWS V14.01,2013-09-21 16:09:00,
2013-09-21 09:14:00,50.9,46.2,29.62,ESE,102,0.0,0.0,84,0.00,,---,0.00,VWS V14.01,2013-09-21 16:14:00,
2013-09-21 09:15:00,51.0,46.3,29.62,ESE,102,0.0,0.0,84,0.00,,---,0.00,VWS V14.01,2013-09-21 16:15:00,
2013-09-21 09:19:00,51.8,47.1,29.63,ESE,102,0.0,0.0,84,0.00,,---,0.00,VWS V14.01,2013-09-21 16:19:00,
2013-09-21 09:24:00,52.4,47.1,29.62,ESE,102,0.0,0.0,82,0.00,,---,0.00,VWS V14.01,2013-09-21 16:24:00,
2013-09-21 09:29:00,52.5,46.5,29.62,South,182,0.0,0.0,80,0.00,,---,0.00,VWS V14.01,2013-09-21 16:29:00,
2013-09-21 09:30:00,52.6,46.6,29.62,South,182,0.0,0.0,80,0.00,,---,0.00,VWS V14.01,2013-09-21 16:30:00,
2013-09-21 09:34:00,52.9,46.6,29.62,South,182,0.0,0.0,79,0.00,,---,0.00,VWS V14.01,2013-09-21 16:34:00,
2013-09-21 09:39:00,53.3,45.9,29.62,South,182,0.0,0.0,76,0.00,,---,0.00,VWS V14.01,2013-09-21 16:39:00,
2013-09-21 09:44:00,54.0,46.6,29.62,South,182,0.0,0.0,76,0.00,,---,0.00,VWS V14.01,2013-09-21 16:44:00,
2013-09-21 09:45:00,54.1,46.4,29.62,South,182,0.0,0.0,75,0.00,,---,0.00,VWS V14.01,2013-09-21 16:45:00,
2013-09-21 09:49:00,54.4,46.3,29.62,South,182,0.0,0.0,74,0.00,,---,0.00,VWS V14.01,2013-09-21 16:49:00,
2013-09-21 09:54:00,54.8,44.8,29.61,South,182,0.0,0.0,69,0.00,,---,0.00,VWS V14.01,2013-09-21 16:54:00,
2013-09-21 09:59:00,55.5,45.1,29.61,South,182,0.0,0.0,68,0.00,,---,0.00,VWS V14.01,2013-09-21 16:59:00,
2013-09-21 10:00:00,55.6,45.2,29.61,South,182,0.0,0.0,68,0.00,,---,0.00,VWS V14.01,2013-09-21 17:00:00,
2013-09-21 10:04:00,56.0,45.2,29.61,South,182,0.0,0.0,67,0.00,,---,0.00,VWS V14.01,2013-09-21 17:04:00,
2013-09-21 10:08:00,56.3,44.7,29.61,South,182,0.0,0.0,65,0.00,,---,0.00,VWS V14.01,2013-09-21 17:08:00,
2013-09-21 10:13:00,56.5,45.3,29.61,South,182,0.0,0.0,66,0.00,,---,0.00,VWS V14.01,2013-09-21 17:13:00,
2013-09-21 10:15:00,56.5,45.3,29.61,South,182,0.0,0.0,66,0.00,,---,0.00,VWS V14.01,2013-09-21 17:15:00,
2013-09-21 10:18:00,56.5,45.3,29.61,South,182,0.0,0.0,66,0.00,,---,0.00,VWS V14.01,2013-09-21 17:18:00,
2013-09-21 10:23:00,56.8,44.3,29.61,South,182,0.0,0.0,63,0.00,,---,0.00,VWS V14.01,2013-09-21 17:23:00,
2013-09-21 10:28:00,57.5,45.8,29.61,South,182,0.0,0.0,65,0.00,,---,0.00,VWS V14.01,2013-09-21 17:28:00,
2013-09-21 10:30:00,57.6,45.9,29.61,South,182,0.0,0.0,65,0.00,,---,0.00,VWS V14.01,2013-09-21 17:30:00,
2013-09-21 10:33:00,58.1,44.7,29.61,South,181,0.0,0.0,61,0.00,,---,0.00,VWS V14.01,2013-09-21 17:33:00,
2013-09-21 10:38:00,58.3,44.5,29.61,ESE,121,0.0,4.0,60,0.00,,---,0.00,VWS V14.01,2013-09-21 17:38:00,
2013-09-21 10:43:00,58.5,45.1,29.61,East,84,0.0,8.0,61,0.00,,---,0.00,VWS V14.01,2013-09-21 17:43:00,
2013-09-21 10:45:00,58.5,44.2,29.61,East,84,0.0,8.0,59,0.00,,---,0.00,VWS V14.01,2013-09-21 17:45:00,
2013-09-21 10:48:00,59.0,46.0,29.61,ENE,72,0.0,3.0,62,0.00,,---,0.00,VWS V14.01,2013-09-21 17:48:00,
2013-09-21 10:53:00,59.7,44.0,29.61,ENE,76,0.0,6.0,56,0.00,,---,0.00,VWS V14.01,2013-09-21 17:53:00,
2013-09-21 10:58:00,60.3,45.9,29.61,ENE,67,8.0,8.0,59,0.00,,---,0.00,VWS V14.01,2013-09-21 17:58:00,
2013-09-21 11:00:00,60.3,45.9,29.61,ENE,70,4.0,8.0,59,0.00,,---,0.00,VWS V14.01,2013-09-21 18:00:00,
2013-09-21 11:03:00,60.1,42.9,29.61,East,80,8.0,8.0,53,0.00,,---,0.00,VWS V14.01,2013-09-21 18:03:00,
2013-09-21 11:08:00,60.1,42.9,29.60,East,90,7.0,11.0,53,0.00,,---,0.00,VWS V14.01,2013-09-21 18:08:00,
2013-09-21 11:13:00,60.6,43.4,29.60,East,96,2.0,15.0,53,0.00,,---,0.00,VWS V14.01,2013-09-21 18:13:00,
2013-09-21 11:15:00,60.6,43.4,29.60,ENE,67,6.0,15.0,53,0.00,,---,0.00,VWS V14.01,2013-09-21 18:15:00,
2013-09-21 11:18:00,60.8,42.6,29.60,SE,128,0.0,12.0,51,0.00,,---,0.00,VWS V14.01,2013-09-21 18:18:00,
2013-09-21 11:23:00,61.0,43.3,29.60,SE,137,5.0,12.0,52,0.00,,---,0.00,VWS V14.01,2013-09-21 18:23:00,
2013-09-21 11:28:00,61.2,43.5,29.60,East,101,0.0,12.0,52,0.00,,---,0.00,VWS V14.01,2013-09-21 18:28:00,
2013-09-21 11:30:00,61.3,43.0,29.60,East,101,0.0,12.0,51,0.00,,---,0.00,VWS V14.01,2013-09-21 18:30:00,
2013-09-21 11:33:00,61.9,43.1,29.59,ENE,74,8.0,17.0,50,0.00,,---,0.00,VWS V14.01,2013-09-21 18:33:00,
2013-09-21 11:38:00,61.9,41.5,29.59,ESE,102,5.0,17.0,47,0.00,,---,0.00,VWS V14.01,2013-09-21 18:38:00,
2013-09-21 11:43:00,61.6,42.3,29.59,ENE,65,8.0,17.0,49,0.00,,---,0.00,VWS V14.01,2013-09-21 18:43:00,
2013-09-21 11:45:00,61.7,44.4,29.59,ENE,59,11.0,17.0,53,0.00,,---,0.00,VWS V14.01,2013-09-21 18:45:00,
2013-09-21 11:48:00,61.4,42.1,29.59,ENE,76,3.0,13.0,49,0.00,,---,0.00,VWS V14.01,2013-09-21 18:48:00,
2013-09-21 11:53:00,61.5,42.2,29.58,East,97,11.0,13.0,49,0.00,,---,0.00,VWS V14.01,2013-09-21 18:53:00,
2013-09-21 11:58:00,61.5,42.2,29.58,ENE,76,6.0,13.0,49,0.00,,---,0.00,VWS V14.01,2013-09-21 18:58:00,
2013-09-21 12:00:00,61.5,41.7,29.58,ENE,59,6.0,13.0,48,0.00,,---,0.00,VWS V14.01,2013-09-21 19:00:00,
2013-09-21 12:03:00,61.5,41.7,29.58,NE,56,0.0,6.0,48,0.00,,---,0.00,VWS V14.01,2013-09-21 19:03:00,
2013-09-21 12:08:00,61.4,42.6,29.58,ESE,113,2.0,13.0,50,0.00,,---,0.00,VWS V14.01,2013-09-21 19:08:00,
2013-09-21 12:13:00,61.3,43.0,29.58,ESE,113,0.0,13.0,51,0.00,,---,0.00,VWS V14.01,2013-09-21 19:13:00,
2013-09-21 12:15:00,61.3,43.5,29.58,ESE,113,0.0,13.0,52,0.00,,---,0.00,VWS V14.01,2013-09-21 19:15:00,
2013-09-21 12:18:00,61.4,42.6,29.58,ESE,113,0.0,0.0,50,0.00,,---,0.00,VWS V14.01,2013-09-21 19:18:00,
2013-09-21 12:23:00,61.7,42.4,29.58,ESE,113,0.0,0.0,49,0.00,,---,0.00,VWS V14.01,2013-09-21 19:23:00,
2013-09-21 12:28:00,62.0,43.7,29.58,SE,128,2.0,6.0,51,0.00,,---,0.00,VWS V14.01,2013-09-21 19:28:00,
2013-09-21 12:30:00,62.0,43.7,29.58,SE,139,5.0,6.0,51,0.00,,---,0.00,VWS V14.01,2013-09-21 19:30:00,
2013-09-21 12:33:00,62.0,44.2,29.59,SSE,160,8.0,9.0,52,0.00,,---,0.00,VWS V14.01,2013-09-21 19:33:00,
2013-09-21 12:38:00,61.2,43.0,29.59,SSE,159,4.0,17.0,51,0.00,,---,0.00,VWS V14.01,2013-09-21 19:38:00,
2013-09-21 12:43:00,60.5,45.7,29.59,South,175,6.0,17.0,58,0.00,,---,0.00,VWS V14.01,2013-09-21 19:43:00,
2013-09-21 12:45:00,60.3,45.0,29.59,SSE,163,8.0,17.0,57,0.00,,---,0.00,VWS V14.01,2013-09-21 19:45:00,
2013-09-21 12:48:00,60.0,45.7,29.59,SSE,168,6.0,10.0,59,0.00,,---,0.00,VWS V14.01,2013-09-21 19:48:00,
2013-09-21 12:53:00,60.2,43.5,29.59,South,172,0.0,10.0,54,0.00,,---,0.00,VWS V14.01,2013-09-21 19:53:00,
2013-09-21 12:58:00,61.1,46.2,29.58,South,179,0.0,10.0,58,0.00,,---,0.00,VWS V14.01,2013-09-21 19:58:00,
2013-09-21 13:00:00,61.2,44.0,29.58,WSW,254,5.0,10.0,53,0.00,,---,0.00,VWS V14.01,2013-09-21 20:00:00,
2013-09-21 13:03:00,61.3,44.0,29.58,WSW,253,0.0,5.0,53,0.00,,---,0.00,VWS V14.01,2013-09-21 20:03:00,
2013-09-21 13:08:00,61.2,43.0,29.58,WNW,287,0.0,5.0,51,0.00,,---,0.00,VWS V14.01,2013-09-21 20:08:00,
2013-09-21 13:13:00,60.8,45.5,29.58,North,355,6.0,6.0,57,0.00,,---,0.00,VWS V14.01,2013-09-21 20:13:00,
2013-09-21 13:15:00,60.7,44.0,29.58,North,5,5.0,6.0,54,0.00,,---,0.00,VWS V14.01,2013-09-21 20:15:00,
2013-09-21 13:18:00,60.2,44.5,29.58,NNE,13,0.0,5.0,56,0.00,,---,0.00,VWS V14.01,2013-09-21 20:18:00,
2013-09-21 13:23:00,59.9,45.1,29.58,NNE,17,0.0,5.0,58,0.00,,---,0.00,VWS V14.01,2013-09-21 20:23:00,
2013-09-21 13:28:00,59.9,44.2,29.58,NNE,17,0.0,5.0,56,0.00,,---,0.00,VWS V14.01,2013-09-21 20:28:00,
2013-09-21 13:30:00,59.9,44.2,29.58,NNE,17,0.0,5.0,56,0.00,,---,0.00,VWS V14.01,2013-09-21 20:30:00,
2013-09-21 13:33:00,60.3,43.6,29.58,NNE,17,0.0,0.0,54,0.00,,---,0.00,VWS V14.01,2013-09-21 20:33:00,
2013-09-21 13:38:00,60.4,46.0,29.58,NNE,15,0.0,0.0,59,0.00,,---,0.00,VWS V14.01,2013-09-21 20:38:00,
2013-09-21 13:43:00,60.3,44.6,29.58,NNE,16,0.0,0.0,56,0.00,,---,0.00,VWS V14.01,2013-09-21 20:43:00,
2013-09-21 13:45:00,60.3,45.9,29.58,NNE,16,0.0,0.0,59,0.00,,---,0.00,VWS V14.01,2013-09-21 20:45:00,
2013-09-21 13:48:00,60.5,45.2,29.57,NNE,14,6.0,6.0,57,0.00,,---,0.00,VWS V14.01,2013-09-21 20:48:00,
2013-09-21 13:53:00,60.5,45.2,29.57,NNE,23,0.0,6.0,57,0.00,,---,0.00,VWS V14.01,2013-09-21 20:53:00,
2013-09-21 13:58:00,60.6,44.4,29.57,NNE,26,0.0,6.0,55,0.00,,---,0.00,VWS V14.01,2013-09-21 20:58:00,
2013-09-21 14:00:00,60.7,44.5,29.57,NNE,26,0.0,6.0,55,0.00,,---,0.00,VWS V14.01,2013-09-21 21:00:00,
2013-09-21 14:03:00,60.9,45.6,29.57,NNE,25,0.0,0.0,57,0.00,,---,0.00,VWS V14.01,2013-09-21 21:03:00,
2013-09-21 14:08:00,61.1,44.3,29.57,NE,38,0.0,4.0,54,0.00,,---,0.00,VWS V14.01,2013-09-21 21:08:00,
2013-09-21 14:13:00,61.1,46.2,29.57,NE,37,5.0,7.0,58,0.00,,---,0.00,VWS V14.01,2013-09-21 21:13:00,
2013-09-21 14:15:00,61.0,45.7,29.57,NNE,32,0.0,7.0,57,0.00,,---,0.00,VWS V14.01,2013-09-21 21:15:00,
2013-09-21 14:18:00,60.8,45.0,29.57,NE,49,0.0,6.0,56,0.00,,---,0.00,VWS V14.01,2013-09-21 21:18:00,
2013-09-21 14:23:00,60.7,44.9,29.57,NE,40,0.0,7.0,56,0.00,,---,0.00,VWS V14.01,2013-09-21 21:23:00,
2013-09-21 14:28:00,60.7,44.5,29.57,NE,42,0.0,7.0,55,0.00,,---,0.00,VWS V14.01,2013-09-21 21:28:00,
2013-09-21 14:30:00,60.7,44.9,29.57,NE,42,0.0,7.0,56,0.00,,---,0.00,VWS V14.01,2013-09-21 21:30:00,
2013-09-21 14:33:00,60.8,46.0,29.57,NNE,24,0.0,5.0,58,0.00,,---,0.00,VWS V14.01,2013-09-21 21:33:00,
2013-09-21 14:38:00,60.9,46.0,29.57,NNE,19,5.0,5.0,58,0.00,,---,0.00,VWS V14.01,2013-09-21 21:38:00,
2013-09-21 14:43:00,60.9,44.6,29.57,NNE,22,0.0,6.0,55,0.00,,---,0.00,VWS V14.01,2013-09-21 21:43:00,
2013-09-21 14:45:00,60.9,46.5,29.57,NNE,22,0.0,6.0,59,0.00,,---,0.00,VWS V14.01,2013-09-21 21:45:00,
2013-09-21 14:48:00,61.0,44.2,29.57,NE,34,0.0,0.0,54,0.00,,---,0.00,VWS V14.01,2013-09-21 21:48:00,
2013-09-21 14:53:00,61.2,45.9,29.57,NE,40,0.0,0.0,57,0.00,,---,0.00,VWS V14.01,2013-09-21 21:53:00,
2013-09-21 14:58:00,61.3,46.4,29.57,NE,37,0.0,5.0,58,0.00,,---,0.00,VWS V14.01,2013-09-21 21:58:00,
2013-09-21 15:00:00,61.3,46.4,29.57,NE,40,0.0,5.0,58,0.00,,---,0.00,VWS V14.01,2013-09-21 22:00:00,
2013-09-21 15:03:00,61.4,46.5,29.57,NE,42,0.0,0.0,58,0.00,,---,0.00,VWS V14.01,2013-09-21 22:03:00,
2013-09-21 15:08:00,61.5,45.2,29.57,NE,49,0.0,0.0,55,0.00,,---,0.00,VWS V14.01,2013-09-21 22:08:00,
2013-09-21 15:13:00,61.5,45.2,29.57,NE,53,0.0,4.0,55,0.00,,---,0.00,VWS V14.01,2013-09-21 22:13:00,
2013-09-21 15:15:00,61.5,46.1,29.57,ENE,64,5.0,5.0,57,0.00,,---,0.00,VWS V14.01,2013-09-21 22:15:00,
2013-09-21 15:18:00,60.9,45.6,29.58,SE,124,20.0,22.0,57,0.00,,---,0.00,VWS V14.01,2013-09-21 22:18:00,
2013-09-21 15:23:00,57.7,45.2,29.58,ESE,113,19.0,22.0,63,0.00,,---,0.00,VWS V14.01,2013-09-21 22:23:00,
2013-09-21 15:28:00,56.5,45.7,29.59,ESE,112,14.0,22.0,67,0.00,,---,0.00,VWS V14.01,2013-09-21 22:28:00,
2013-09-21 15:30:00,56.3,45.9,29.59,ESE,114,13.0,22.0,68,0.00,,---,0.00,VWS V14.01,2013-09-21 22:30:00,
2013-09-21 15:33:00,55.9,44.7,29.59,ESE,106,9.0,24.0,66,0.00,,---,0.00,VWS V14.01,2013-09-21 22:33:00,
2013-09-21 15:38:00,55.8,44.2,29.59,ESE,120,11.0,24.0,65,0.00,,---,0.00,VWS V14.01,2013-09-21 22:38:00,
2013-09-21 15:43:00,55.6,44.4,29.60,SE,124,8.0,24.0,66,0.00,,---,0.00,VWS V14.01,2013-09-21 22:43:00,
2013-09-21 15:45:00,55.5,44.7,29.60,East,100,13.0,24.0,67,0.00,,---,0.00,VWS V14.01,2013-09-21 22:45:00,
2013-09-21 15:48:00,55.2,44.8,29.60,ESE,111,11.0,19.0,68,0.00,,---,0.00,VWS V14.01,2013-09-21 22:48:00,
2013-09-21 15:53:00,54.7,45.5,29.60,SE,129,14.0,20.0,71,0.00,,---,0.00,VWS V14.01,2013-09-21 22:53:00,
2013-09-21 15:58:00,54.0,46.3,29.60,ESE,111,8.0,20.0,75,0.00,,---,0.00,VWS V14.01,2013-09-21 22:58:00,
2013-09-21 16:00:00,61.3,46.4,29.57,NE,40,0.0,5.0,58,0.00,,---,0.00,VWS V14.01,2013-09-21 23:00:00,
2013-09-21 16:03:00,53.3,46.3,29.61,ESE,114,8.0,14.0,77,0.00,,---,0.00,VWS V14.01,2013-09-21 23:03:00,
2013-09-21 16:08:00,53.0,46.7,29.61,ESE,113,0.0,14.0,79,0.00,,---,0.00,VWS V14.01,2013-09-21 23:08:00,
2013-09-21 16:13:00,53.0,47.0,29.61,ESE,113,0.0,14.0,80,0.00,,---,0.00,VWS V14.01,2013-09-21 23:13:00,
2013-09-21 16:15:00,53.0,47.0,29.61,ESE,111,0.0,14.0,80,0.00,,---,0.00,VWS V14.01,2013-09-21 23:15:00,
2013-09-21 16:18:00,52.9,47.2,29.61,East,98,0.0,8.0,81,0.00,,---,0.00,VWS V14.01,2013-09-21 23:18:00,
2013-09-21 16:23:00,52.6,47.3,29.62,East,95,0.0,8.0,82,0.00,,---,0.00,VWS V14.01,2013-09-21 23:23:00,
2013-09-21 16:28:00,52.5,47.5,29.62,East,95,0.0,8.0,83,0.00,,---,0.00,VWS V14.01,2013-09-21 23:28:00,
2013-09-21 16:30:00,52.4,47.7,29.62,East,95,0.0,8.0,84,0.00,,---,0.00,VWS V14.01,2013-09-21 23:30:00,
2013-09-21 16:33:00,52.4,47.4,29.63,NW,323,0.0,0.0,83,0.00,,---,0.00,VWS V14.01,2013-09-21 23:33:00,
2013-09-21 16:37:00,52.4,46.8,29.62,WSW,253,0.0,0.0,81,0.01,,---,0.01,VWS V14.01,2013-09-21 23:37:00,
2013-09-21 16:42:00,52.6,47.3,29.62,WSW,250,4.0,6.0,82,0.02,,---,0.02,VWS V14.01,2013-09-21 23:42:00,
2013-09-21 16:45:00,52.6,47.6,29.62,WSW,250,0.0,6.0,83,0.03,,---,0.03,VWS V14.01,2013-09-21 23:45:00,
2013-09-21 16:47:00,52.6,47.3,29.62,WSW,252,0.0,0.0,82,0.03,,---,0.03,VWS V14.01,2013-09-21 23:47:00,
2013-09-21 16:52:00,52.6,48.2,29.62,WSW,251,0.0,0.0,85,0.04,,---,0.04,VWS V14.01,2013-09-21 23:52:00,
2013-09-21 16:57:00,52.5,48.1,29.62,WSW,257,0.0,0.0,85,0.05,,---,0.05,VWS V14.01,2013-09-21 23:57:00,
2013-09-21 17:00:00,52.5,48.1,29.62,West,259,0.0,0.0,85,0.05,,---,0.05,VWS V14.01,2013-09-22 00:00:00,
2013-09-21 17:02:00,52.4,48.3,29.62,West,261,0.0,0.0,86,0.06,,---,0.06,VWS V14.01,2013-09-22 00:02:00,
2013-09-21 17:07:00,52.2,48.2,29.61,WNW,298,6.0,7.0,86,0.08,,---,0.08,VWS V14.01,2013-09-22 00:07:00,
2013-09-21 17:12:00,52.1,48.0,29.61,WNW,302,5.0,10.0,86,0.08,,---,0.08,VWS V14.01,2013-09-22 00:12:00,
2013-09-21 17:15:00,52.1,48.4,29.61,WNW,302,5.0,10.0,87,0.08,,---,0.08,VWS V14.01,2013-09-22 00:15:00,
2013-09-21 17:17:00,52.1,48.4,29.61,WNW,302,5.0,6.0,87,0.08,,---,0.08,VWS V14.01,2013-09-22 00:17:00,
2013-09-21 17:22:00,52.0,48.3,29.61,WNW,302,0.0,7.0,87,0.08,,---,0.08,VWS V14.01,2013-09-22 00:22:00,
2013-09-21 17:27:00,51.9,47.8,29.62,WNW,302,0.0,7.0,86,0.08,,---,0.08,VWS V14.01,2013-09-22 00:27:00,
2013-09-21 17:30:00,51.9,47.8,29.62,WNW,302,0.0,7.0,86,0.08,,---,0.08,VWS V14.01,2013-09-22 00:30:00,
2013-09-21 17:32:00,51.9,47.8,29.62,WNW,302,0.0,0.0,86,0.08,,---,0.08,VWS V14.01,2013-09-22 00:32:00,
2013-09-21 17:37:00,52.0,48.0,29.62,NW,306,0.0,0.0,86,0.08,,---,0.08,VWS V14.01,2013-09-22 00:37:00,
2013-09-21 17:42:00,52.2,48.2,29.62,North,9,0.0,0.0,86,0.08,,---,0.08,VWS V14.01,2013-09-22 00:42:00,
2013-09-21 17:45:00,52.4,48.7,29.62,NNE,28,0.0,0.0,87,0.08,,---,0.08,VWS V14.01,2013-09-22 00:45:00,
2013-09-21 17:47:00,52.6,48.8,29.63,NNE,28,0.0,0.0,87,0.05,,---,0.08,VWS V14.01,2013-09-22 00:47:00,
2013-09-21 17:52:00,52.9,48.5,29.63,NNE,28,0.0,0.0,85,0.05,,---,0.08,VWS V14.01,2013-09-22 00:52:00,
2013-09-21 17:57:00,53.2,48.5,29.63,NNE,28,0.0,0.0,84,0.05,,---,0.08,VWS V14.01,2013-09-22 00:57:00,
2013-09-21 18:00:00,53.2,48.5,29.63,NNE,28,0.0,0.0,84,0.05,,---,0.08,VWS V14.01,2013-09-22 01:00:00,
2013-09-21 18:02:00,53.3,48.6,29.63,NNE,28,0.0,0.0,84,0.03,,---,0.08,VWS V14.01,2013-09-22 01:02:00,
2013-09-21 18:07:00,53.7,49.6,29.63,NE,38,0.0,0.0,86,0.03,,---,0.08,VWS V14.01,2013-09-22 01:07:00,
2013-09-21 18:12:00,53.7,49.6,29.63,ENE,70,0.0,0.0,86,0.03,,---,0.08,VWS V14.01,2013-09-22 01:12:00,
2013-09-21 18:15:00,53.7,49.3,29.63,ENE,74,5.0,5.0,85,0.03,,---,0.08,VWS V14.01,2013-09-22 01:15:00,
2013-09-21 18:17:00,53.6,48.6,29.63,ENE,74,4.0,5.0,83,0.00,,---,0.08,VWS V14.01,2013-09-22 01:17:00,
2013-09-21 18:22:00,53.7,48.7,29.63,NE,55,3.0,6.0,83,0.00,,---,0.08,VWS V14.01,2013-09-22 01:22:00,
2013-09-21 18:27:00,53.7,48.0,29.63,ENE,59,0.0,6.0,81,0.00,,---,0.08,VWS V14.01,2013-09-22 01:27:00,
2013-09-21 18:30:00,53.9,48.2,29.63,ENE,59,0.0,6.0,81,0.00,,---,0.08,VWS V14.01,2013-09-22 01:30:00,
2013-09-21 18:32:00,53.8,49.4,29.64,ENE,59,0.0,0.0,85,0.00,,---,0.08,VWS V14.01,2013-09-22 01:32:00,
2013-09-21 18:37:00,53.4,49.6,29.64,ENE,59,0.0,0.0,87,0.00,,---,0.08,VWS V14.01,2013-09-22 01:37:00,
2013-09-21 18:42:00,53.2,48.8,29.64,ENE,60,0.0,0.0,85,0.00,,---,0.08,VWS V14.01,2013-09-22 01:42:00,
2013-09-21 18:45:00,53.2,48.8,29.64,ENE,60,0.0,0.0,85,0.00,,---,0.08,VWS V14.01,2013-09-22 01:45:00,
2013-09-21 18:47:00,53.3,48.9,29.64,ENE,60,0.0,0.0,85,0.00,,---,0.08,VWS V14.01,2013-09-22 01:47:00,
2013-09-21 18:52:00,53.5,49.7,29.64,ENE,72,0.0,0.0,87,0.00,,---,0.08,VWS V14.01,2013-09-22 01:52:00,
2013-09-21 18:57:00,53.4,49.9,29.64,ENE,73,0.0,0.0,88,0.00,,---,0.08,VWS V14.01,2013-09-22 01:57:00,
2013-09-21 19:00:00,53.3,49.8,29.64,ENE,72,0.0,0.0,88,0.00,,---,0.08,VWS V14.01,2013-09-22 02:00:00,
2013-09-21 19:02:00,53.2,49.7,29.64,ENE,73,0.0,0.0,88,0.00,,---,0.08,VWS V14.01,2013-09-22 02:02:00,
2013-09-21 19:07:00,53.0,49.5,29.64,ENE,72,0.0,0.0,88,0.00,,---,0.08,VWS V14.01,2013-09-22 02:07:00,
2013-09-21 19:12:00,52.9,49.5,29.63,ENE,72,0.0,0.0,88,0.00,,---,0.08,VWS V14.01,2013-09-22 02:12:00,
2013-09-21 19:15:00,52.8,49.3,29.63,ENE,72,0.0,0.0,88,0.00,,---,0.08,VWS V14.01,2013-09-22 02:15:00,
2013-09-21 19:17:00,52.7,49.5,29.63,ENE,72,0.0,0.0,89,0.00,,---,0.08,VWS V14.01,2013-09-22 02:17:00,
2013-09-21 19:22:00,52.4,49.3,29.64,ENE,73,0.0,0.0,89,0.00,,---,0.08,VWS V14.01,2013-09-22 02:22:00,
2013-09-21 19:27:00,52.1,49.0,29.64,ENE,73,0.0,0.0,89,0.00,,---,0.08,VWS V14.01,2013-09-22 02:27:00,
2013-09-21 19:30:00,52.0,48.9,29.64,ENE,72,0.0,0.0,89,0.00,,---,0.08,VWS V14.01,2013-09-22 02:30:00,
2013-09-21 19:32:00,51.8,49.0,29.64,ENE,73,0.0,0.0,90,0.00,,---,0.08,VWS V14.01,2013-09-22 02:32:00,
2013-09-21 19:37:00,51.7,48.9,29.64,ENE,72,0.0,0.0,90,0.00,,---,0.08,VWS V14.01,2013-09-22 02:37:00,
2013-09-21 19:42:00,51.5,48.7,29.64,ENE,73,0.0,0.0,90,0.00,,---,0.08,VWS V14.01,2013-09-22 02:42:00,
2013-09-21 19:45:00,51.5,48.7,29.65,ENE,73,0.0,0.0,90,0.00,,---,0.08,VWS V14.01,2013-09-22 02:45:00,
2013-09-21 19:47:00,51.4,48.6,29.65,ENE,72,0.0,0.0,90,0.00,,---,0.08,VWS V14.01,2013-09-22 02:47:00,
2013-09-21 19:52:00,51.3,48.8,29.65,ENE,73,0.0,0.0,91,0.00,,---,0.08,VWS V14.01,2013-09-22 02:52:00,
2013-09-21 19:57:00,51.3,48.8,29.66,ENE,73,0.0,0.0,91,0.00,,---,0.08,VWS V14.01,2013-09-22 02:57:00,
2013-09-21 20:00:00,51.2,48.7,29.66,ENE,72,0.0,0.0,91,0.00,,---,0.08,VWS V14.01,2013-09-22 03:00:00,
2013-09-21 20:02:00,51.3,48.8,29.66,ENE,73,0.0,0.0,91,0.00,,---,0.08,VWS V14.01,2013-09-22 03:02:00,
2013-09-21 20:07:00,51.5,48.7,29.66,ENE,72,0.0,0.0,90,0.00,,---,0.08,VWS V14.01,2013-09-22 03:07:00,
2013-09-21 20:12:00,51.5,48.7,29.66,ENE,72,0.0,0.0,90,0.00,,---,0.08,VWS V14.01,2013-09-22 03:12:00,
2013-09-21 20:15:00,51.5,48.7,29.66,ENE,73,0.0,0.0,90,0.00,,---,0.08,VWS V14.01,2013-09-22 03:15:00,
2013-09-21 20:17:00,51.5,48.7,29.66,ENE,73,0.0,0.0,90,0.00,,---,0.08,VWS V14.01,2013-09-22 03:17:00,
2013-09-21 20:22:00,51.5,48.4,29.67,ENE,72,0.0,0.0,89,0.00,,---,0.08,VWS V14.01,2013-09-22 03:22:00,
2013-09-21 20:27:00,51.5,48.7,29.67,ENE,73,0.0,0.0,90,0.00,,---,0.08,VWS V14.01,2013-09-22 03:27:00,
2013-09-21 20:30:00,51.5,48.4,29.66,ENE,72,0.0,0.0,89,0.00,,---,0.08,VWS V14.01,2013-09-22 03:30:00,
2013-09-21 20:32:00,51.6,48.2,29.66,ENE,73,0.0,0.0,88,0.00,,---,0.08,VWS V14.01,2013-09-22 03:32:00,
2013-09-21 20:37:00,51.8,48.7,29.67,ENE,73,0.0,0.0,89,0.00,,---,0.08,VWS V14.01,2013-09-22 03:37:00,
2013-09-21 20:42:00,51.4,48.3,29.67,ENE,72,0.0,0.0,89,0.00,,---,0.08,VWS V14.01,2013-09-22 03:42:00,
2013-09-21 20:45:00,51.2,48.1,29.67,ENE,73,0.0,0.0,89,0.00,,---,0.08,VWS V14.01,2013-09-22 03:45:00,
2013-09-21 20:47:00,50.9,47.8,29.67,ENE,74,0.0,0.0,89,0.00,,---,0.08,VWS V14.01,2013-09-22 03:47:00,
2013-09-21 20:52:00,50.3,47.2,29.68,ENE,73,0.0,0.0,89,0.00,,---,0.08,VWS V14.01,2013-09-22 03:52:00,
2013-09-21 20:57:00,49.7,46.9,29.68,ENE,73,0.0,0.0,90,0.00,,---,0.08,VWS V14.01,2013-09-22 03:57:00,
2013-09-21 21:00:00,51.2,48.7,29.66,ENE,72,0.0,0.0,91,0.00,,---,0.08,VWS V14.01,2013-09-22 04:00:00,
2013-09-21 21:01:00,49.4,46.9,29.68,ENE,72,0.0,0.0,91,0.00,,---,0.08,VWS V14.01,2013-09-22 04:01:00,
2013-09-21 21:06:00,49.2,46.7,29.68,ENE,72,0.0,0.0,91,0.00,,---,0.08,VWS V14.01,2013-09-22 04:06:00,
2013-09-21 21:11:00,49.2,47.0,29.68,ENE,72,0.0,0.0,92,0.00,,---,0.08,VWS V14.01,2013-09-22 04:11:00,
2013-09-21 21:15:00,49.2,47.0,29.68,ENE,72,0.0,0.0,92,0.00,,---,0.08,VWS V14.01,2013-09-22 04:15:00,
2013-09-21 21:16:00,49.1,46.9,29.68,ENE,72,0.0,0.0,92,0.00,,---,0.08,VWS V14.01,2013-09-22 04:16:00,
2013-09-21 21:21:00,48.9,46.7,29.68,ENE,73,0.0,0.0,92,0.00,,---,0.08,VWS V14.01,2013-09-22 04:21:00,
2013-09-21 21:26:00,48.5,46.0,29.69,ENE,74,0.0,0.0,91,0.00,,---,0.08,VWS V14.01,2013-09-22 04:26:00,
2013-09-21 21:30:00,48.2,45.7,29.69,ENE,74,0.0,0.0,91,0.00,,---,0.08,VWS V14.01,2013-09-22 04:30:00,
2013-09-21 21:31:00,48.0,45.5,29.69,ENE,74,0.0,0.0,91,0.00,,---,0.08,VWS V14.01,2013-09-22 04:31:00,
2013-09-21 21:36:00,47.9,45.7,29.69,ENE,74,0.0,0.0,92,0.00,,---,0.08,VWS V14.01,2013-09-22 04:36:00,
2013-09-21 21:41:00,48.5,46.3,29.69,ENE,74,0.0,0.0,92,0.00,,---,0.08,VWS V14.01,2013-09-22 04:41:00,
2013-09-21 21:45:00,49.0,46.5,29.69,ENE,74,0.0,0.0,91,0.00,,---,0.08,VWS V14.01,2013-09-22 04:45:00,
2013-09-21 21:46:00,49.2,46.7,29.69,ENE,74,0.0,0.0,91,0.00,,---,0.08,VWS V14.01,2013-09-22 04:46:00,
2013-09-21 21:51:00,49.2,46.4,29.69,ENE,74,0.0,0.0,90,0.00,,---,0.08,VWS V14.01,2013-09-22 04:51:00,
2013-09-21 21:56:00,49.1,46.3,29.69,ENE,74,0.0,0.0,90,0.00,,---,0.08,VWS V14.01,2013-09-22 04:56:00,
2013-09-21 22:00:00,48.9,46.1,29.69,ENE,74,0.0,0.0,90,0.00,,---,0.08,VWS V14.01,2013-09-22 05:00:00,
2013-09-21 22:01:00,48.8,46.0,29.69,ENE,74,0.0,0.0,90,0.00,,---,0.08,VWS V14.01,2013-09-22 05:01:00,
2013-09-21 22:06:00,48.6,45.8,29.68,ENE,74,0.0,0.0,90,0.00,,---,0.08,VWS V14.01,2013-09-22 05:06:00,
2013-09-21 22:11:00,48.3,45.5,29.68,ENE,74,0.0,0.0,90,0.00,,---,0.08,VWS V14.01,2013-09-22 05:11:00,
2013-09-21 22:15:00,48.1,45.6,29.68,ENE,74,0.0,0.0,91,0.00,,---,0.08,VWS V14.01,2013-09-22 05:15:00,
2013-09-21 22:16:00,48.0,45.5,29.68,ENE,74,0.0,0.0,91,0.00,,---,0.08,VWS V14.01,2013-09-22 05:16:00,
2013-09-21 22:21:00,47.8,45.3,29.68,ENE,74,0.0,0.0,91,0.00,,---,0.08,VWS V14.01,2013-09-22 05:21:00,
2013-09-21 22:26:00,47.7,45.5,29.68,ENE,74,0.0,0.0,92,0.00,,---,0.08,VWS V14.01,2013-09-22 05:26:00,
2013-09-21 22:30:00,47.4,44.9,29.68,ENE,74,0.0,0.0,91,0.00,,---,0.08,VWS V14.01,2013-09-22 05:30:00,
2013-09-21 22:31:00,47.2,44.7,29.69,ENE,74,0.0,0.0,91,0.00,,---,0.08,VWS V14.01,2013-09-22 05:31:00,
2013-09-21 22:36:00,46.5,44.0,29.69,ENE,74,0.0,0.0,91,0.00,,---,0.08,VWS V14.01,2013-09-22 05:36:00,
2013-09-21 22:41:00,46.7,44.2,29.69,ENE,74,0.0,0.0,91,0.00,,---,0.08,VWS V14.01,2013-09-22 05:41:00,
2013-09-21 22:45:00,46.9,44.4,29.69,ENE,74,0.0,0.0,91,0.00,,---,0.08,VWS V14.01,2013-09-22 05:45:00,
2013-09-21 22:46:00,46.9,44.4,29.69,ENE,74,0.0,0.0,91,0.00,,---,0.08,VWS V14.01,2013-09-22 05:46:00,
2013-09-21 22:51:00,46.8,44.0,29.69,ENE,73,0.0,0.0,90,0.00,,---,0.08,VWS V14.01,2013-09-22 05:51:00,
2013-09-21 22:56:00,45.9,43.1,29.69,ENE,73,0.0,0.0,90,0.00,,---,0.08,VWS V14.01,2013-09-22 05:56:00,
2013-09-21 23:00:00,45.4,42.6,29.69,ENE,72,0.0,0.0,90,0.00,,---,0.08,VWS V14.01,2013-09-22 06:00:00,
2013-09-21 23:01:00,45.3,42.5,29.69,ENE,73,0.0,0.0,90,0.00,,---,0.08,VWS V14.01,2013-09-22 06:01:00,
2013-09-21 23:06:00,45.0,42.5,29.69,ENE,72,0.0,0.0,91,0.00,,---,0.08,VWS V14.01,2013-09-22 06:06:00,
2013-09-21 23:11:00,45.2,43.0,29.69,ENE,73,0.0,0.0,92,0.00,,---,0.08,VWS V14.01,2013-09-22 06:11:00,
2013-09-21 23:15:00,45.3,43.1,29.69,ENE,73,0.0,0.0,92,0.00,,---,0.08,VWS V14.01,2013-09-22 06:15:00,
2013-09-21 23:16:00,45.3,43.1,29.69,ENE,73,0.0,0.0,92,0.00,,---,0.08,VWS V14.01,2013-09-22 06:16:00,
2013-09-21 23:21:00,45.2,43.0,29.69,ENE,73,0.0,0.0,92,0.00,,---,0.08,VWS V14.01,2013-09-22 06:21:00,
2013-09-21 23:26:00,45.3,43.1,29.70,ENE,73,0.0,0.0,92,0.00,,---,0.08,VWS V14.01,2013-09-22 06:26:00,
2013-09-21 23:30:00,45.3,43.1,29.70,ENE,73,0.0,0.0,92,0.00,,---,0.08,VWS V14.01,2013-09-22 06:30:00,
2013-09-21 23:31:00,45.3,43.1,29.70,ENE,73,0.0,0.0,92,0.00,,---,0.08,VWS V14.01,2013-09-22 06:31:00,
2013-09-21 23:36:00,45.2,43.0,29.70,ENE,72,0.0,0.0,92,0.00,,---,0.08,VWS V14.01,2013-09-22 06:36:00,
2013-09-21 23:40:00,45.4,43.5,29.70,ENE,73,0.0,0.0,93,0.00,,---,0.08,VWS V14.01,2013-09-22 06:40:00,
2013-09-21 23:45:00,45.8,43.9,29.70,ENE,72,0.0,0.0,93,0.00,,---,0.08,VWS V14.01,2013-09-22 06:45:00,
2013-09-21 23:50:00,46.1,44.2,29.70,ENE,73,0.0,0.0,93,0.00,,---,0.08,VWS V14.01,2013-09-22 06:50:00,
2013-09-21 23:55:00,46.3,44.4,29.70,ENE,73,0.0,0.0,93,0.00,,---,0.08,VWS V14.01,2013-09-22 06:55:00,